createdAt,value
2017-09-14T00:01:00.379Z,993.76
2017-09-14T00:02:10.928Z,993.74
2017-09-14T00:03:20.878Z,993.76
2017-09-14T00:04:30.815Z,993.82
2017-09-14T00:05:40.770Z,993.77
2017-09-14T00:06:51.020Z,993.67
2017-09-14T00:08:01.206Z,993.7
2017-09-14T00:09:11.458Z,993.69
2017-09-14T00:10:21.711Z,993.76
2017-09-14T00:11:31.650Z,993.76
2017-09-14T00:12:41.905Z,993.67
2017-09-14T00:13:52.404Z,993.71
2017-09-14T00:15:02.340Z,993.75
2017-09-14T00:16:12.594Z,993.75
2017-09-14T00:17:22.837Z,993.76
2017-09-14T00:18:33.092Z,993.77
2017-09-14T00:19:43.650Z,993.73
2017-09-14T00:20:53.928Z,993.68
2017-09-14T00:22:04.178Z,993.63
2017-09-14T00:23:14.425Z,993.64
2017-09-14T00:24:24.684Z,993.67
2017-09-14T00:25:35.215Z,993.65
2017-09-14T00:26:45.461Z,993.65
2017-09-14T00:27:55.734Z,993.6
2017-09-14T00:29:05.981Z,993.68
2017-09-14T00:30:15.912Z,993.63
2017-09-14T00:31:26.428Z,993.69
2017-09-14T00:32:36.360Z,993.71
2017-09-14T00:33:46.609Z,993.67
2017-09-14T00:34:56.230Z,993.7
2017-09-14T00:36:06.490Z,993.7
2017-09-14T00:37:17.008Z,993.64
2017-09-14T00:38:26.945Z,993.61
2017-09-14T00:39:36.588Z,993.64
2017-09-14T00:40:46.828Z,993.63
2017-09-14T00:41:57.084Z,993.59
2017-09-14T00:43:07.587Z,993.61
2017-09-14T00:44:17.840Z,993.59
2017-09-14T00:45:27.774Z,993.63
2017-09-14T00:46:38.029Z,993.51
2017-09-14T00:47:48.274Z,993.46
2017-09-14T00:48:58.775Z,993.48
2017-09-14T00:50:08.718Z,993.47
2017-09-14T00:51:18.966Z,993.49
2017-09-14T00:52:28.948Z,993.35
2017-09-14T00:53:38.890Z,993.39
2017-09-14T00:54:49.410Z,993.36
2017-09-14T00:55:59.679Z,993.37
2017-09-14T00:57:09.612Z,993.31
2017-09-14T00:58:19.542Z,993.56
2017-09-14T00:59:29.790Z,993.31
2017-09-14T01:00:39.671Z,993.22
2017-09-14T01:01:49.921Z,993.29
2017-09-14T01:03:00.170Z,993.23
2017-09-14T01:04:10.446Z,993.3
2017-09-14T01:05:20.695Z,993.36
2017-09-14T01:06:30.886Z,993.36
2017-09-14T01:07:40.821Z,993.27
2017-09-14T01:08:51.068Z,993.33
2017-09-14T01:10:01.006Z,993.31
2017-09-14T01:11:11.255Z,993.35
2017-09-14T01:12:21.441Z,993.49
2017-09-14T01:13:31.379Z,993.4
2017-09-14T01:14:41.624Z,993.4
2017-09-14T01:15:51.560Z,993.38
2017-09-14T01:17:01.810Z,993.43
2017-09-14T01:18:12.318Z,993.45
2017-09-14T01:19:22.579Z,993.46
2017-09-14T01:20:32.193Z,993.39
2017-09-14T01:21:42.438Z,993.4
2017-09-14T01:22:52.685Z,993.43
2017-09-14T01:24:03.192Z,993.46
2017-09-14T01:25:13.452Z,993.5
2017-09-14T01:26:23.093Z,993.39
2017-09-14T01:27:33.349Z,993.46
2017-09-14T01:28:43.590Z,993.42
2017-09-14T01:29:53.455Z,993.52
2017-09-14T01:31:03.385Z,993.4
2017-09-14T01:32:13.666Z,993.4
2017-09-14T01:33:23.924Z,993.4
2017-09-14T01:34:34.178Z,993.39
2017-09-14T01:35:44.379Z,993.35
2017-09-14T01:36:54.623Z,993.37
2017-09-14T01:38:04.872Z,993.34
2017-09-14T01:39:15.135Z,993.36
2017-09-14T01:40:25.391Z,993.33
2017-09-14T01:41:35.897Z,993.23
2017-09-14T01:42:46.158Z,993.33
2017-09-14T01:43:56.405Z,993.37
2017-09-14T01:45:06.649Z,993.28
2017-09-14T01:46:16.907Z,993.27
2017-09-14T01:47:27.407Z,993.31
2017-09-14T01:48:37.688Z,993.22
2017-09-14T01:49:47.625Z,993.3
2017-09-14T01:50:57.879Z,993.39
2017-09-14T01:52:08.137Z,993.28
2017-09-14T01:53:18.643Z,993.32
2017-09-14T01:54:28.889Z,993.34
2017-09-14T01:55:38.829Z,993.32
2017-09-14T01:56:49.086Z,993.37
2017-09-14T01:57:59.330Z,993.32
2017-09-14T01:59:09.511Z,993.35
2017-09-14T02:00:19.450Z,993.33
2017-09-14T02:01:29.701Z,993.33
2017-09-14T02:02:39.637Z,993.3
2017-09-14T02:03:49.879Z,993.29
2017-09-14T02:05:00.099Z,993.32
2017-09-14T02:06:10.032Z,993.3
2017-09-14T02:07:19.981Z,993.31
2017-09-14T02:08:29.913Z,993.32
2017-09-14T02:09:40.165Z,993.29
2017-09-14T02:10:50.659Z,993.23
2017-09-14T02:12:00.911Z,993.33
2017-09-14T02:13:10.530Z,993.19
2017-09-14T02:14:20.783Z,993.21
2017-09-14T02:15:31.054Z,993.33
2017-09-14T02:16:41.575Z,993.31
2017-09-14T02:17:51.820Z,993.24
2017-09-14T02:19:02.061Z,993.38
2017-09-14T02:20:12.310Z,993.37
2017-09-14T02:21:22.251Z,993.28
2017-09-14T02:22:32.436Z,993.33
2017-09-14T02:23:42.692Z,993.29
2017-09-14T02:24:52.935Z,993.35
2017-09-14T02:26:02.870Z,993.24
2017-09-14T02:27:12.491Z,993.24
2017-09-14T02:28:23.049Z,993.27
2017-09-14T02:29:33.435Z,993.22
2017-09-14T02:30:43.406Z,993.3
2017-09-14T02:31:53.368Z,993.31
2017-09-14T02:33:03.311Z,993.25
2017-09-14T02:34:13.820Z,993.25
2017-09-14T02:35:24.085Z,993.26
2017-09-14T02:36:34.032Z,993.28
2017-09-14T02:37:44.275Z,993.28
2017-09-14T02:38:54.531Z,993.31
2017-09-14T02:40:05.048Z,993.33
2017-09-14T02:41:15.310Z,993.23
2017-09-14T02:42:25.581Z,993.31
2017-09-14T02:43:35.845Z,993.24
2017-09-14T02:44:46.092Z,993.16
2017-09-14T02:45:56.587Z,993.13
2017-09-14T02:47:06.849Z,993.04
2017-09-14T02:48:16.779Z,992.97
2017-09-14T02:49:27.042Z,992.92
2017-09-14T02:50:36.988Z,992.9
2017-09-14T02:51:47.539Z,992.84
2017-09-14T02:52:57.783Z,992.73
2017-09-14T02:54:08.030Z,992.68
2017-09-14T02:55:18.299Z,992.8
2017-09-14T02:56:28.250Z,992.9
2017-09-14T02:57:38.431Z,992.97
2017-09-14T02:58:48.376Z,992.95
2017-09-14T02:59:58.007Z,992.88
2017-09-14T03:01:07.957Z,992.87
2017-09-14T03:02:17.890Z,992.91
2017-09-14T03:03:28.389Z,992.89
2017-09-14T03:04:38.647Z,992.86
2017-09-14T03:05:48.267Z,992.9
2017-09-14T03:06:57.878Z,992.94
2017-09-14T03:08:07.810Z,992.87
2017-09-14T03:09:17.998Z,992.75
2017-09-14T03:10:28.256Z,992.73
2017-09-14T03:11:38.509Z,992.72
2017-09-14T03:12:48.439Z,992.75
2017-09-14T03:13:58.694Z,992.73
2017-09-14T03:15:09.193Z,992.73
2017-09-14T03:16:19.444Z,992.73
2017-09-14T03:17:29.388Z,992.71
2017-09-14T03:18:39.625Z,992.67
2017-09-14T03:19:49.569Z,992.66
2017-09-14T03:20:59.749Z,992.65
2017-09-14T03:22:10.010Z,992.68
2017-09-14T03:23:19.645Z,992.61
2017-09-14T03:24:29.887Z,992.57
2017-09-14T03:25:40.145Z,992.53
2017-09-14T03:26:50.641Z,992.46
2017-09-14T03:28:01.396Z,992.51
2017-09-14T03:29:11.636Z,992.43
2017-09-14T03:30:21.884Z,992.59
2017-09-14T03:31:31.508Z,992.6
2017-09-14T03:32:42.009Z,992.62
2017-09-14T03:33:51.632Z,992.61
2017-09-14T03:35:01.894Z,992.54
2017-09-14T03:36:12.146Z,992.55
2017-09-14T03:37:22.397Z,992.51
2017-09-14T03:38:32.896Z,992.5
2017-09-14T03:39:43.149Z,992.4
2017-09-14T03:40:53.502Z,992.49
2017-09-14T03:42:03.433Z,992.51
2017-09-14T03:43:13.697Z,992.46
2017-09-14T03:44:23.569Z,992.45
2017-09-14T03:45:33.499Z,992.42
2017-09-14T03:46:43.754Z,992.39
2017-09-14T03:47:54.006Z,992.39
2017-09-14T03:49:03.942Z,992.45
2017-09-14T03:50:14.124Z,992.5
2017-09-14T03:51:23.753Z,992.52
2017-09-14T03:52:33.701Z,992.63
2017-09-14T03:53:43.637Z,992.8
2017-09-14T03:54:53.939Z,992.77
2017-09-14T03:56:04.441Z,992.75
2017-09-14T03:57:14.696Z,992.73
2017-09-14T03:58:24.967Z,992.72
2017-09-14T03:59:34.896Z,992.85
2017-09-14T04:00:45.156Z,992.9
2017-09-14T04:01:55.346Z,992.94
2017-09-14T04:03:05.598Z,992.93
2017-09-14T04:04:15.858Z,992.94
2017-09-14T04:05:26.114Z,992.9
2017-09-14T04:06:36.371Z,992.87
2017-09-14T04:07:46.923Z,992.89
2017-09-14T04:08:57.198Z,992.86
2017-09-14T04:10:07.486Z,993.02
2017-09-14T04:11:17.417Z,993.1
2017-09-14T04:12:27.367Z,993.11
2017-09-14T04:13:37.869Z,993.05
2017-09-14T04:14:48.113Z,992.97
2017-09-14T04:15:58.048Z,992.96
2017-09-14T04:17:07.665Z,992.86
2017-09-14T04:18:17.915Z,993.06
2017-09-14T04:19:28.417Z,993.19
2017-09-14T04:20:38.350Z,993.08
2017-09-14T04:21:48.280Z,993.02
2017-09-14T04:22:58.544Z,993.14
2017-09-14T04:24:08.794Z,993.14
2017-09-14T04:25:18.975Z,993.06
2017-09-14T04:26:29.250Z,993.06
2017-09-14T04:27:39.507Z,993.13
2017-09-14T04:28:49.756Z,992.93
2017-09-14T04:30:00.002Z,992.94
2017-09-14T04:31:10.534Z,993.01
2017-09-14T04:32:20.472Z,992.88
2017-09-14T04:33:30.091Z,992.94
2017-09-14T04:34:40.334Z,992.95
2017-09-14T04:35:50.272Z,993.07
2017-09-14T04:37:00.784Z,992.98
2017-09-14T04:38:10.717Z,992.91
2017-09-14T04:39:20.972Z,992.96
2017-09-14T04:40:31.219Z,993.02
2017-09-14T04:41:41.147Z,993.08
2017-09-14T04:42:51.333Z,993.29
2017-09-14T04:44:01.586Z,993.51
2017-09-14T04:45:11.531Z,993.33
2017-09-14T04:46:21.473Z,993.16
2017-09-14T04:47:31.727Z,992.92
2017-09-14T04:48:41.932Z,992.71
2017-09-14T04:49:51.875Z,992.4
2017-09-14T04:51:02.123Z,992.31
2017-09-14T04:52:12.059Z,992.32
2017-09-14T04:53:22.306Z,992.33
2017-09-14T04:54:32.822Z,992.49
2017-09-14T04:55:43.081Z,992.47
2017-09-14T04:56:53.357Z,992.43
2017-09-14T04:58:03.645Z,992.29
2017-09-14T04:59:13.659Z,992.46
2017-09-14T05:00:24.199Z,992.9
2017-09-14T05:01:34.438Z,992.98
2017-09-14T05:02:44.686Z,992.85
2017-09-14T05:03:54.306Z,992.65
2017-09-14T05:05:04.556Z,992.45
2017-09-14T05:06:14.742Z,992.25
2017-09-14T05:07:24.678Z,992.17
2017-09-14T05:08:34.629Z,992.13
2017-09-14T05:09:44.884Z,992.24
2017-09-14T05:10:55.140Z,992.34
2017-09-14T05:12:05.017Z,992.37
2017-09-14T05:13:15.258Z,992.33
2017-09-14T05:14:25.506Z,992.51
2017-09-14T05:15:35.758Z,992.65
2017-09-14T05:16:45.700Z,992.99
2017-09-14T05:17:55.896Z,993.07
2017-09-14T05:19:06.142Z,993.13
2017-09-14T05:20:16.072Z,993.25
2017-09-14T05:21:26.320Z,993.43
2017-09-14T05:22:36.584Z,993.5
2017-09-14T05:23:46.142Z,993.46
2017-09-14T05:24:56.070Z,993.33
2017-09-14T05:26:05.691Z,992.94
2017-09-14T05:27:15.638Z,992.53
2017-09-14T05:28:25.578Z,992.2
2017-09-14T05:29:36.079Z,992.16
2017-09-14T05:30:46.015Z,992.49
2017-09-14T05:31:55.972Z,992.77
2017-09-14T05:33:06.231Z,992.79
2017-09-14T05:34:16.168Z,992.89
2017-09-14T05:35:26.676Z,993.07
2017-09-14T05:36:36.614Z,993.05
2017-09-14T05:37:46.870Z,993.13
2017-09-14T05:38:56.808Z,993.12
2017-09-14T05:40:07.075Z,993.12
2017-09-14T05:41:16.943Z,993.03
2017-09-14T05:42:26.882Z,992.86
2017-09-14T05:43:37.138Z,992.68
2017-09-14T05:44:47.418Z,992.77
2017-09-14T05:45:57.744Z,992.88
2017-09-14T05:47:07.945Z,993.06
2017-09-14T05:48:17.876Z,993.13
2017-09-14T05:49:28.124Z,992.99
2017-09-14T05:50:38.386Z,992.91
2017-09-14T05:51:48.642Z,992.81
2017-09-14T05:52:58.833Z,992.8
2017-09-14T05:54:08.776Z,992.86
2017-09-14T05:55:19.030Z,993.01
2017-09-14T05:56:29.313Z,992.9
2017-09-14T05:57:39.576Z,992.87
2017-09-14T05:58:49.755Z,992.91
2017-09-14T06:00:00.015Z,992.98
2017-09-14T06:01:09.968Z,993.05
2017-09-14T06:02:19.596Z,993.07
2017-09-14T06:03:29.852Z,993.07
2017-09-14T06:04:40.089Z,992.98
2017-09-14T06:05:50.036Z,993.01
2017-09-14T06:07:00.310Z,993.03
2017-09-14T06:08:10.586Z,993
2017-09-14T06:09:20.863Z,993.03
2017-09-14T06:10:31.373Z,992.98
2017-09-14T06:11:41.625Z,992.95
2017-09-14T06:12:51.888Z,993.01
2017-09-14T06:14:01.829Z,992.95
2017-09-14T06:15:12.078Z,993.3
2017-09-14T06:16:22.581Z,993.26
2017-09-14T06:17:32.832Z,993.19
2017-09-14T06:18:42.767Z,993.22
2017-09-14T06:19:53.015Z,993.12
2017-09-14T06:21:03.262Z,993.11
2017-09-14T06:22:13.452Z,993.04
2017-09-14T06:23:23.408Z,993.2
2017-09-14T06:24:33.670Z,993.25
2017-09-14T06:25:43.619Z,993.39
2017-09-14T06:26:53.878Z,993.51
2017-09-14T06:28:04.382Z,993.57
2017-09-14T06:29:14.643Z,993.58
2017-09-14T06:30:24.906Z,993.54
2017-09-14T06:31:35.166Z,993.48
2017-09-14T06:32:45.417Z,993.46
2017-09-14T06:33:55.610Z,993.5
2017-09-14T06:35:05.872Z,993.43
2017-09-14T06:36:16.141Z,993.48
2017-09-14T06:37:26.399Z,993.48
2017-09-14T06:38:36.689Z,993.52
2017-09-14T06:39:47.180Z,993.42
2017-09-14T06:40:57.440Z,993.53
2017-09-14T06:42:07.395Z,993.38
2017-09-14T06:43:17.667Z,993.2
2017-09-14T06:44:27.963Z,993.17
2017-09-14T06:45:38.233Z,992.97
2017-09-14T06:46:48.544Z,993.3
2017-09-14T06:47:58.813Z,993.29
2017-09-14T06:49:08.768Z,993.38
2017-09-14T06:50:18.406Z,993.36
2017-09-14T06:51:28.877Z,993.31
2017-09-14T06:52:39.160Z,993.39
2017-09-14T06:53:49.461Z,993.44
2017-09-14T06:54:59.755Z,993.51
2017-09-14T06:56:10.042Z,993.42
2017-09-14T06:57:20.555Z,993.45
2017-09-14T06:58:30.191Z,993.4
2017-09-14T06:59:40.525Z,993.47
2017-09-14T07:00:50.829Z,993.36
2017-09-14T07:02:01.346Z,993.41
2017-09-14T07:03:11.889Z,993.45
2017-09-14T07:04:22.158Z,993.44
2017-09-14T07:05:32.462Z,993.34
2017-09-14T07:06:42.774Z,993.34
2017-09-14T07:07:53.052Z,993.27
2017-09-14T07:09:03.597Z,993.33
2017-09-14T07:10:13.545Z,993.35
2017-09-14T07:11:23.840Z,993.3
2017-09-14T07:12:33.789Z,993.38
2017-09-14T07:13:43.721Z,993.37
2017-09-14T07:14:54.245Z,993.38
2017-09-14T07:16:04.517Z,993.37
2017-09-14T07:17:14.468Z,993.39
2017-09-14T07:18:24.752Z,993.39
2017-09-14T07:19:34.694Z,993.48
2017-09-14T07:20:45.234Z,993.56
2017-09-14T07:21:55.591Z,993.59
2017-09-14T07:23:05.877Z,993.47
2017-09-14T07:24:16.196Z,993.47
2017-09-14T07:25:26.378Z,993.44
2017-09-14T07:26:36.586Z,993.46
2017-09-14T07:27:46.856Z,993.11
2017-09-14T07:28:57.134Z,993.25
2017-09-14T07:30:07.112Z,993.11
2017-09-14T07:31:17.403Z,993.27
2017-09-14T07:32:27.931Z,993.1
2017-09-14T07:33:38.213Z,993.17
2017-09-14T07:34:48.503Z,993.18
2017-09-14T07:35:58.466Z,993.29
2017-09-14T07:37:08.433Z,993.4
2017-09-14T07:38:18.306Z,993.55
2017-09-14T07:39:27.928Z,993.68
2017-09-14T07:40:38.200Z,993.81
2017-09-14T07:41:48.147Z,993.93
2017-09-14T07:42:58.099Z,994.09
2017-09-14T07:44:08.628Z,994.12
2017-09-14T07:45:18.899Z,994.16
2017-09-14T07:46:29.183Z,994.16
2017-09-14T07:47:39.459Z,994.33
2017-09-14T07:48:49.718Z,994.24
2017-09-14T07:49:59.978Z,994.19
2017-09-14T07:51:10.282Z,994.14
2017-09-14T07:52:20.531Z,994.06
2017-09-14T07:53:30.483Z,993.93
2017-09-14T07:54:40.738Z,993.79
2017-09-14T07:55:51.330Z,993.78
2017-09-14T07:57:01.593Z,993.73
2017-09-14T07:58:11.841Z,993.84
2017-09-14T07:59:22.161Z,994.02
2017-09-14T08:00:32.444Z,994.06
2017-09-14T08:01:42.963Z,994.16
2017-09-14T08:02:53.258Z,994.05
2017-09-14T08:04:03.536Z,994.03
2017-09-14T08:05:13.804Z,994.01
2017-09-14T08:06:23.749Z,994.1
2017-09-14T08:07:34.292Z,993.97
2017-09-14T08:08:44.806Z,994.06
2017-09-14T08:09:55.073Z,994.13
2017-09-14T08:11:05.350Z,994.2
2017-09-14T08:12:15.610Z,994.17
2017-09-14T08:13:26.125Z,994.16
2017-09-14T08:14:36.094Z,994.18
2017-09-14T08:15:46.356Z,994.09
2017-09-14T08:16:55.983Z,994.06
2017-09-14T08:18:06.249Z,994.03
2017-09-14T08:19:16.784Z,994.04
2017-09-14T08:20:26.741Z,994.02
2017-09-14T08:21:37.024Z,994.13
2017-09-14T08:22:47.329Z,994.25
2017-09-14T08:23:57.321Z,994.55
2017-09-14T08:25:07.865Z,994.35
2017-09-14T08:26:18.143Z,994.25
2017-09-14T08:27:28.134Z,994.38
2017-09-14T08:28:38.426Z,994.34
2017-09-14T08:29:48.698Z,994.33
2017-09-14T08:30:58.919Z,994.35
2017-09-14T08:32:08.850Z,994.34
2017-09-14T08:33:19.111Z,994.42
2017-09-14T08:34:29.378Z,994.44
2017-09-14T08:35:39.652Z,994.41
2017-09-14T08:36:50.181Z,994.42
2017-09-14T08:38:00.446Z,994.38
2017-09-14T08:39:10.713Z,994.25
2017-09-14T08:40:20.980Z,994.38
2017-09-14T08:41:31.242Z,994.42
2017-09-14T08:42:41.432Z,994.4
2017-09-14T08:43:51.053Z,994.33
2017-09-14T08:45:00.978Z,994.22
2017-09-14T08:46:11.239Z,994.26
2017-09-14T08:47:21.492Z,994.18
2017-09-14T08:48:32.013Z,994.3
2017-09-14T08:49:42.273Z,994.18
2017-09-14T08:50:52.245Z,994.22
2017-09-14T08:52:02.761Z,994.25
2017-09-14T08:53:13.023Z,994.2
2017-09-14T08:54:23.533Z,994.32
2017-09-14T08:55:33.885Z,994.14
2017-09-14T08:56:43.227Z,994.07
2017-09-14T08:57:53.510Z,994.16
2017-09-14T08:59:03.765Z,994.09
2017-09-14T09:00:14.312Z,994.09
2017-09-14T09:01:24.619Z,994.15
2017-09-14T09:02:34.612Z,994.22
2017-09-14T09:03:44.940Z,994.34
2017-09-14T09:04:54.920Z,994.48
2017-09-14T09:06:05.495Z,994.5
2017-09-14T09:07:15.763Z,994.51
2017-09-14T09:08:25.719Z,994.4
2017-09-14T09:09:35.342Z,994.41
2017-09-14T09:10:45.627Z,994.35
2017-09-14T09:11:56.167Z,994.29
2017-09-14T09:13:06.428Z,994.31
2017-09-14T09:14:16.923Z,994.23
2017-09-14T09:15:27.239Z,994.13
2017-09-14T09:16:37.498Z,994.28
2017-09-14T09:17:47.771Z,994.23
2017-09-14T09:18:58.073Z,994.34
2017-09-14T09:20:08.328Z,994.36
2017-09-14T09:21:18.334Z,994.34
2017-09-14T09:22:27.960Z,994.27
2017-09-14T09:23:38.467Z,994.25
2017-09-14T09:24:48.783Z,994.33
2017-09-14T09:25:59.076Z,994.29
2017-09-14T09:27:09.361Z,994.35
2017-09-14T09:28:19.354Z,994.33
2017-09-14T09:29:29.610Z,994.25
2017-09-14T09:30:39.888Z,994.27
2017-09-14T09:31:50.168Z,994.3
2017-09-14T09:33:00.111Z,994.26
2017-09-14T09:34:10.376Z,994.4
2017-09-14T09:35:20.608Z,994.42
2017-09-14T09:36:30.564Z,994.37
2017-09-14T09:37:40.544Z,994.29
2017-09-14T09:38:50.508Z,994.4
2017-09-14T09:40:00.495Z,994.44
2017-09-14T09:41:11.051Z,994.47
2017-09-14T09:42:21.342Z,994.62
2017-09-14T09:43:31.902Z,994.63
2017-09-14T09:44:41.862Z,994.54
2017-09-14T09:45:52.187Z,994.62
2017-09-14T09:47:02.724Z,994.59
2017-09-14T09:48:12.984Z,994.81
2017-09-14T09:49:23.243Z,994.92
2017-09-14T09:50:33.198Z,994.64
2017-09-14T09:51:43.261Z,994.92
2017-09-14T09:52:53.861Z,994.78
2017-09-14T09:54:04.127Z,994.89
2017-09-14T09:55:14.405Z,994.71
2017-09-14T09:56:24.687Z,994.74
2017-09-14T09:57:34.947Z,994.72
2017-09-14T09:58:45.182Z,994.77
2017-09-14T09:59:54.819Z,994.83
2017-09-14T10:01:05.085Z,994.93
2017-09-14T10:02:14.729Z,994.86
2017-09-14T10:03:24.369Z,994.73
2017-09-14T10:04:34.918Z,994.79
2017-09-14T10:05:44.863Z,994.9
2017-09-14T10:06:55.128Z,994.78
2017-09-14T10:08:05.414Z,994.74
2017-09-14T10:09:15.674Z,994.78
2017-09-14T10:10:26.186Z,995.06
2017-09-14T10:11:36.467Z,994.8
2017-09-14T10:12:46.729Z,994.9
2017-09-14T10:13:57.049Z,994.71
2017-09-14T10:15:07.327Z,994.82
2017-09-14T10:16:17.538Z,994.7
2017-09-14T10:17:27.799Z,994.65
2017-09-14T10:18:38.051Z,994.74
2017-09-14T10:19:47.990Z,994.79
2017-09-14T10:20:58.254Z,994.82
2017-09-14T10:22:08.443Z,994.9
2017-09-14T10:23:18.411Z,994.86
2017-09-14T10:24:28.682Z,994.65
2017-09-14T10:25:38.984Z,994.66
2017-09-14T10:26:49.297Z,994.65
2017-09-14T10:27:59.876Z,994.62
2017-09-14T10:29:09.826Z,994.45
2017-09-14T10:30:19.480Z,994.5
2017-09-14T10:31:29.439Z,994.54
2017-09-14T10:32:39.393Z,994.52
2017-09-14T10:33:49.590Z,994.45
2017-09-14T10:34:59.545Z,994.33
2017-09-14T10:36:09.817Z,994.36
2017-09-14T10:37:20.117Z,994.36
2017-09-14T10:38:30.371Z,994.5
2017-09-14T10:39:40.891Z,994.72
2017-09-14T10:40:51.155Z,994.86
2017-09-14T10:42:00.768Z,994.98
2017-09-14T10:43:10.718Z,994.82
2017-09-14T10:44:20.977Z,994.75
2017-09-14T10:45:31.173Z,994.56
2017-09-14T10:46:41.446Z,994.36
2017-09-14T10:47:51.111Z,994.46
2017-09-14T10:49:00.742Z,994.29
2017-09-14T10:50:10.679Z,994.34
2017-09-14T10:51:21.242Z,994.32
2017-09-14T10:52:31.513Z,994.36
2017-09-14T10:53:41.454Z,994.45
2017-09-14T10:54:51.727Z,994.42
2017-09-14T10:56:01.994Z,994.53
2017-09-14T10:57:12.203Z,994.58
2017-09-14T10:58:22.154Z,994.87
2017-09-14T10:59:32.440Z,994.54
2017-09-14T11:00:42.699Z,994.7
2017-09-14T11:01:52.973Z,994.78
2017-09-14T11:03:03.490Z,994.84
2017-09-14T11:04:13.118Z,995.02
2017-09-14T11:05:23.372Z,995.12
2017-09-14T11:06:33.325Z,995.12
2017-09-14T11:07:43.593Z,995.42
2017-09-14T11:08:54.095Z,995.42
2017-09-14T11:10:04.029Z,995.32
2017-09-14T11:11:13.987Z,995.59
2017-09-14T11:12:24.249Z,995.39
2017-09-14T11:13:34.498Z,995.28
2017-09-14T11:14:45.003Z,995.26
2017-09-14T11:15:55.256Z,994.93
2017-09-14T11:17:05.198Z,994.78
2017-09-14T11:18:14.818Z,994.83
2017-09-14T11:19:24.445Z,994.58
2017-09-14T11:20:34.643Z,994.71
2017-09-14T11:21:44.267Z,994.86
2017-09-14T11:22:54.537Z,995
2017-09-14T11:24:04.830Z,995.17
2017-09-14T11:25:14.790Z,995.18
2017-09-14T11:26:25.315Z,995.23
2017-09-14T11:27:35.258Z,995.34
2017-09-14T11:28:45.539Z,995.35
2017-09-14T11:29:55.474Z,995.13
2017-09-14T11:31:05.756Z,995.03
2017-09-14T11:32:15.638Z,995.11
2017-09-14T11:33:25.574Z,994.97
2017-09-14T11:34:35.527Z,994.95
2017-09-14T11:35:45.784Z,995.02
2017-09-14T11:36:56.049Z,995.21
2017-09-14T11:38:06.562Z,995.21
2017-09-14T11:39:16.837Z,995.21
2017-09-14T11:40:26.801Z,995.16
2017-09-14T11:41:36.760Z,995.09
2017-09-14T11:42:46.710Z,995.14
2017-09-14T11:43:56.582Z,995.17
2017-09-14T11:45:06.220Z,995.11
2017-09-14T11:46:16.150Z,994.98
2017-09-14T11:47:26.425Z,994.92
2017-09-14T11:48:36.690Z,995.01
2017-09-14T11:49:47.191Z,995.03
2017-09-14T11:50:57.458Z,995.1
2017-09-14T11:52:07.716Z,995.11
2017-09-14T11:53:17.805Z,995.09
2017-09-14T11:54:27.749Z,995.04
2017-09-14T11:55:37.933Z,994.95
2017-09-14T11:56:48.239Z,994.91
2017-09-14T11:57:57.885Z,994.77
2017-09-14T11:59:07.888Z,994.75
2017-09-14T12:00:17.841Z,994.61
2017-09-14T12:01:28.044Z,994.57
2017-09-14T12:02:37.762Z,994.43
2017-09-14T12:03:47.711Z,994.54
2017-09-14T12:04:58.050Z,994.64
2017-09-14T12:06:08.347Z,994.75
2017-09-14T12:07:18.862Z,994.96
2017-09-14T12:08:28.802Z,994.95
2017-09-14T12:09:39.081Z,995.09
2017-09-14T12:10:49.051Z,995.17
2017-09-14T12:11:59.332Z,995.11
2017-09-14T12:13:09.897Z,995.11
2017-09-14T12:14:19.862Z,995.1
2017-09-14T12:15:29.630Z,994.97
2017-09-14T12:16:39.926Z,994.87
2017-09-14T12:17:50.232Z,994.79
2017-09-14T12:19:01.087Z,994.71
2017-09-14T12:20:11.378Z,994.61
2017-09-14T12:21:21.368Z,994.44
2017-09-14T12:22:31.628Z,994.14
2017-09-14T12:23:41.276Z,994.32
2017-09-14T12:24:51.796Z,994.51
2017-09-14T12:26:02.048Z,994.66
2017-09-14T12:27:12.046Z,994.75
2017-09-14T12:28:22.011Z,994.73
2017-09-14T12:29:31.971Z,994.66
2017-09-14T12:30:42.171Z,994.73
2017-09-14T12:31:52.120Z,994.9
2017-09-14T12:33:01.446Z,994.79
2017-09-14T12:34:11.721Z,994.84
2017-09-14T12:35:21.967Z,994.87
2017-09-14T12:36:32.478Z,994.92
2017-09-14T12:37:42.749Z,994.88
2017-09-14T12:38:52.692Z,994.86
2017-09-14T12:40:02.670Z,994.84
2017-09-14T12:41:12.947Z,994.82
2017-09-14T12:42:23.161Z,994.85
2017-09-14T12:43:32.796Z,994.92
2017-09-14T12:44:43.063Z,994.86
2017-09-14T12:45:53.326Z,994.9
2017-09-14T12:47:03.580Z,994.6
2017-09-14T12:48:13.776Z,994.8
2017-09-14T12:49:24.087Z,994.75
2017-09-14T12:50:34.362Z,994.85
2017-09-14T12:51:44.626Z,995.01
2017-09-14T12:52:54.919Z,994.62
2017-09-14T12:54:05.113Z,994.83
2017-09-14T12:55:15.400Z,994.71
2017-09-14T12:56:25.720Z,994.93
2017-09-14T12:57:35.673Z,995.02
2017-09-14T12:58:45.939Z,994.93
2017-09-14T12:59:56.491Z,995.02
2017-09-14T13:01:06.758Z,995.01
2017-09-14T13:02:16.714Z,995.22
2017-09-14T13:03:26.978Z,995.1
2017-09-14T13:04:37.256Z,995.12
2017-09-14T13:05:47.856Z,994.99
2017-09-14T13:06:58.152Z,995.06
2017-09-14T13:08:08.429Z,994.98
2017-09-14T13:09:18.727Z,994.91
2017-09-14T13:10:28.373Z,994.93
2017-09-14T13:11:38.883Z,994.72
2017-09-14T13:12:49.155Z,994.83
2017-09-14T13:13:59.435Z,995.09
2017-09-14T13:15:09.731Z,995.44
2017-09-14T13:16:19.717Z,994.86
2017-09-14T13:17:30.230Z,994.91
2017-09-14T13:18:40.499Z,995.04
2017-09-14T13:19:50.774Z,995.01
2017-09-14T13:21:00.958Z,995.02
2017-09-14T13:22:10.930Z,995.09
2017-09-14T13:23:21.440Z,994.93
2017-09-14T13:24:31.394Z,995.03
2017-09-14T13:25:41.691Z,994.98
2017-09-14T13:26:51.951Z,995.01
2017-09-14T13:28:02.225Z,995.04
2017-09-14T13:29:12.745Z,995
2017-09-14T13:30:22.685Z,994.95
2017-09-14T13:31:32.964Z,994.96
2017-09-14T13:32:43.249Z,994.72
2017-09-14T13:33:52.881Z,994.79
2017-09-14T13:35:03.120Z,994.84
2017-09-14T13:36:13.071Z,994.95
2017-09-14T13:37:23.344Z,994.93
2017-09-14T13:38:32.970Z,994.86
2017-09-14T13:39:42.916Z,994.93
2017-09-14T13:40:53.104Z,994.86
2017-09-14T13:42:03.060Z,994.87
2017-09-14T13:43:13.331Z,994.82
2017-09-14T13:44:23.292Z,994.74
2017-09-14T13:45:33.560Z,994.78
2017-09-14T13:46:43.767Z,994.69
2017-09-14T13:47:53.711Z,994.88
2017-09-14T13:49:03.975Z,994.74
2017-09-14T13:50:14.237Z,994.86
2017-09-14T13:51:24.544Z,994.86
2017-09-14T13:52:35.063Z,994.91
2017-09-14T13:53:45.325Z,994.78
2017-09-14T13:54:55.273Z,994.75
2017-09-14T13:56:04.913Z,994.96
2017-09-14T13:57:15.173Z,995
2017-09-14T13:58:25.362Z,995.01
2017-09-14T13:59:35.318Z,995.06
2017-09-14T14:00:44.950Z,994.96
2017-09-14T14:01:55.215Z,994.86
2017-09-14T14:03:04.846Z,994.98
2017-09-14T14:04:15.068Z,994.92
2017-09-14T14:05:25.013Z,994.99
2017-09-14T14:06:35.269Z,994.96
2017-09-14T14:07:45.531Z,995
2017-09-14T14:08:55.795Z,994.94
2017-09-14T14:10:06.316Z,994.89
2017-09-14T14:11:16.606Z,994.96
2017-09-14T14:12:26.859Z,995
2017-09-14T14:13:37.114Z,994.75
2017-09-14T14:14:47.380Z,994.94
2017-09-14T14:15:57.901Z,995.02
2017-09-14T14:17:07.537Z,994.95
2017-09-14T14:18:17.825Z,995.05
2017-09-14T14:19:28.380Z,994.97
2017-09-14T14:20:38.319Z,995.04
2017-09-14T14:21:48.871Z,995.06
2017-09-14T14:22:59.143Z,994.98
2017-09-14T14:24:09.433Z,995.14
2017-09-14T14:25:19.393Z,995.15
2017-09-14T14:26:29.327Z,995.12
2017-09-14T14:27:39.831Z,995.12
2017-09-14T14:28:50.084Z,995.1
2017-09-14T14:30:00.023Z,995.09
2017-09-14T14:31:10.287Z,995
2017-09-14T14:32:20.224Z,995.07
2017-09-14T14:33:30.726Z,995.04
2017-09-14T14:34:40.990Z,995.07
2017-09-14T14:35:51.270Z,995.04
2017-09-14T14:37:01.527Z,995.03
2017-09-14T14:38:11.793Z,995.02
2017-09-14T14:39:22.312Z,995.03